CheckWX is a tool to help pilots better visualize weather data.  It is not intended as a substitute for an official pre-flight weather briefing.

21:06:10 UTC

DAAV METAR
Jijel Ferhat Abbas Airport
Jijel, Algeria
Current

1 hour ago

DAAV 232000Z 34011KT 9999 SCT020 SCT030 14/10 Q1025
Observed
Feb-23 @ 20:00 UTC
Wind
  • 340° at 11 KTS
Visibility
10,000+ meters
Flight Rules
VFR
Cloud Levels
  • Scattered at 2,000' AGL
  • Scattered at 3,000' AGL
Temperature
14°C / 57°F
Dewpoint
10°C / 50°F
Humidity
77%
Altimeter
30.27" Hg
Pressure
1024.92 hPa
Previous

2 hours ago

DAAV 231900Z 31011KT 8000 SCT020 BKN030 15/11 Q1025
Observed
Feb-23 @ 19:00 UTC
Wind
  • 310° at 11 KTS
Visibility
7,998 meters
Flight Rules
MVFR
Cloud Levels
  • Scattered at 2,000' AGL
  • Broken at 3,000' AGL
Temperature
15°C / 59°F
Dewpoint
11°C / 52°F
Humidity
77%
Altimeter
30.27" Hg
Pressure
1024.92 hPa
Previous

3 hours ago

DAAV 231800Z 29012KT 8000 BKN020 14/10 Q1024
Observed
Feb-23 @ 18:00 UTC
Wind
  • 290° at 12 KTS
Visibility
7,998 meters
Flight Rules
MVFR
Cloud Levels
  • Broken at 2,000' AGL
Temperature
14°C / 57°F
Dewpoint
10°C / 50°F
Humidity
77%
Altimeter
30.24" Hg
Pressure
1023.92 hPa